CheckWX is a tool to help pilots better visualize weather data.  It is not intended as a substitute for an official pre-flight weather briefing.

21:41:11 UTC

KGRF METAR
Gray AAF Airport
Fort Lewis/Tacoma, Washington, USA
Current

43 mins ago

KGRF 232058Z AUTO 17009KT 10SM FEW027 SCT060 BKN070 07/05 A3010 RMK AO2 SLP199 60000 T00700048 58005 $
Observed
Feb-23 @ 20:58 UTC
Wind
  • 170° at 9 KTS
Visibility
10 SM
Flight Rules
VFR
Cloud Levels
  • Few at 2,700' AGL
  • Scattered at 6,000' AGL
  • Broken at 7,000' AGL
Temperature
C / 45°F
Dewpoint
C / 41°F
Humidity
87%
Altimeter
30.1" Hg
Pressure
1019.9 hPa
Previous

1 hour ago

KGRF 232028Z 18009KT 10SM SCT024 BKN085 BKN190 07/06 A3010 RMK AO2A SLP199 $
Observed
Feb-23 @ 20:28 UTC
Wind
  • 180° at 9 KTS
Visibility
10 SM
Flight Rules
VFR
Cloud Levels
  • Scattered at 2,400' AGL
  • Broken at 8,500' AGL
  • Broken at 19,000' AGL
Temperature
C / 45°F
Dewpoint
C / 43°F
Humidity
93%
Altimeter
30.1" Hg
Pressure
1019.9 hPa
Previous

1 hour ago

KGRF 232018Z 15012KT 10SM BKN023 BKN090 07/06 A3010 RMK AO2A SLP199 $
Observed
Feb-23 @ 20:18 UTC
Wind
  • 150° at 12 KTS
Visibility
10 SM
Flight Rules
MVFR
Cloud Levels
  • Broken at 2,300' AGL
  • Broken at 9,000' AGL
Temperature
C / 45°F
Dewpoint
C / 43°F
Humidity
93%
Altimeter
30.1" Hg
Pressure
1019.9 hPa